Time;durP1;ratioP1;P1;durP2;ratioP2;P2;SDS_P1;SDS_P2;PMS_P1;PMS_P2;Temp;Humidity;BMP_temperature;BMP_pressure;BME280_temperature;BME280_humidity;BME280_pressure;Samples;Min_cycle;Max_cycle;Signal;HPM_P1;HPM_P2
2021/01/08 00:01:46;;;;;;;22.77;15.63;;;0.60;99.90;;;;;;5030516;28;20523;-80
2021/01/08 00:04:13;;;;;;;20.87;13.97;;;0.60;99.90;;;;;;5029801;28;20194;-78
2021/01/08 00:06:38;;;;;;;21.83;12.80;;;0.60;99.90;;;;;;5028606;28;20452;-77
2021/01/08 00:09:05;;;;;;;20.13;13.30;;;0.60;99.90;;;;;;5028163;28;20490;-78
2021/01/08 00:11:35;;;;;;;20.57;13.87;;;0.70;99.90;;;;;;5028228;28;20288;-78
2021/01/08 00:14:01;;;;;;;20.30;14.83;;;0.60;99.90;;;;;;5028346;28;20496;-77
2021/01/08 00:16:27;;;;;;;23.53;14.47;;;0.60;99.90;;;;;;5027069;28;20856;-76
2021/01/08 00:18:52;;;;;;;20.00;13.50;;;0.70;99.90;;;;;;5025659;28;20474;-78
2021/01/08 00:21:18;;;;;;;17.97;13.00;;;0.70;99.90;;;;;;5027844;28;20207;-75
2021/01/08 00:23:50;;;;;;;18.53;14.33;;;0.70;99.90;;;;;;5027881;28;20195;-76
2021/01/08 00:26:22;;;;;;;18.43;12.33;;;0.70;99.90;;;;;;5024410;28;20202;-78
2021/01/08 00:28:47;;;;;;;21.17;13.40;;;0.70;99.90;;;;;;5026969;28;20446;-78
2021/01/08 00:31:13;;;;;;;19.97;12.77;;;0.70;99.90;;;;;;5010477;28;20528;-76
2021/01/08 00:33:38;;;;;;;19.07;13.27;;;0.70;99.90;;;;;;5027902;28;20202;-78
2021/01/08 00:36:04;;;;;;;20.40;13.50;;;0.70;99.90;;;;;;5027194;28;20202;-77
2021/01/08 00:38:30;;;;;;;16.10;12.37;;;0.70;99.90;;;;;;5027817;28;20211;-75
2021/01/08 00:40:55;;;;;;;19.53;14.13;;;0.70;99.90;;;;;;5028166;28;21082;-75
2021/01/08 00:43:21;;;;;;;17.60;11.00;;;0.70;99.90;;;;;;5027946;28;20191;-77
2021/01/08 00:45:49;;;;;;;17.30;13.17;;;0.70;99.90;;;;;;5013093;28;20187;-77
2021/01/08 00:48:14;;;;;;;21.23;13.73;;;0.70;99.90;;;;;;5027166;28;20199;-76
2021/01/08 00:50:40;;;;;;;21.60;12.30;;;0.70;99.90;;;;;;5009791;28;20487;-78
2021/01/08 00:53:05;;;;;;;18.20;12.87;;;0.70;99.90;;;;;;5027407;28;20221;-77
2021/01/08 00:55:31;;;;;;;22.63;12.97;;;0.70;99.90;;;;;;5026887;28;20190;-76
2021/01/08 00:57:56;;;;;;;19.70;13.20;;;0.70;99.90;;;;;;5027503;28;20203;-75
2021/01/08 01:00:22;;;;;;;19.97;13.00;;;0.70;99.90;;;;;;5027131;28;20251;-76
2021/01/08 01:02:48;;;;;;;17.67;12.87;;;0.70;99.90;;;;;;5027422;28;20219;-77
2021/01/08 01:05:13;;;;;;;18.10;12.50;;;0.70;99.90;;;;;;5027134;28;20187;-78
2021/01/08 01:07:39;;;;;;;15.03;10.43;;;0.70;99.90;;;;;;5026883;28;20214;-75
2021/01/08 01:10:05;;;;;;;18.00;12.00;;;0.70;99.90;;;;;;5009297;28;20268;-76
2021/01/08 01:12:31;;;;;;;18.87;13.40;;;0.80;99.90;;;;;;5027174;28;20213;-76
2021/01/08 01:14:56;;;;;;;20.90;12.90;;;0.80;99.90;;;;;;5026999;28;20833;-76
2021/01/08 01:17:22;;;;;;;16.83;12.07;;;0.80;99.90;;;;;;5025780;28;20184;-77
2021/01/08 01:19:48;;;;;;;18.23;12.67;;;0.80;99.90;;;;;;5027519;28;20312;-75
2021/01/08 01:22:13;;;;;;;18.40;12.13;;;0.80;99.90;;;;;;5025732;28;20222;-78
2021/01/08 01:24:39;;;;;;;19.20;11.83;;;0.70;99.90;;;;;;5027293;28;20233;-78
2021/01/08 01:27:04;;;;;;;17.07;11.00;;;0.80;99.90;;;;;;5026068;28;20681;-76
2021/01/08 01:29:30;;;;;;;13.13;10.03;;;0.70;99.90;;;;;;5026797;28;20581;-77
2021/01/08 01:31:55;;;;;;;20.80;12.70;;;0.70;99.90;;;;;;5027291;28;20194;-78
2021/01/08 01:34:21;;;;;;;17.40;11.90;;;0.70;99.90;;;;;;5025013;28;20222;-78
2021/01/08 01:36:47;;;;;;;15.70;12.30;;;0.70;99.90;;;;;;5026199;28;20531;-77
2021/01/08 01:39:15;;;;;;;15.20;10.70;;;0.70;99.90;;;;;;5026180;28;20211;-78
2021/01/08 01:41:41;;;;;;;15.17;11.00;;;0.70;99.90;;;;;;5026458;28;20215;-77
2021/01/08 01:44:07;;;;;;;13.10;10.30;;;0.80;99.90;;;;;;5026818;28;20465;-76
2021/01/08 01:46:33;;;;;;;13.40;10.07;;;0.70;99.90;;;;;;5023271;28;20469;-77
2021/01/08 01:48:59;;;;;;;13.17;10.43;;;0.80;99.90;;;;;;5026669;28;20286;-77
2021/01/08 01:51:25;;;;;;;14.70;10.60;;;0.80;99.90;;;;;;5014107;28;20422;-77
2021/01/08 01:53:51;;;;;;;15.17;10.93;;;0.80;99.90;;;;;;5026368;28;20511;-77
2021/01/08 01:56:17;;;;;;;17.23;11.27;;;0.80;99.90;;;;;;5025768;28;20425;-78
2021/01/08 01:58:43;;;;;;;12.07;9.13;;;0.80;99.90;;;;;;5026279;28;20517;-78
2021/01/08 02:01:11;;;;;;;19.03;12.83;;;0.80;99.90;;;;;;5008061;28;20256;-78
2021/01/08 02:03:56;;;;;;;13.43;10.90;;;0.80;99.90;;;;;;5026564;28;20175;-77
2021/01/08 02:06:28;;;;;;;16.00;10.23;;;0.80;99.90;;;;;;5025917;28;20441;-76
2021/01/08 02:09:00;;;;;;;12.97;10.00;;;0.80;99.90;;;;;;5026106;28;20506;-76
2021/01/08 02:11:28;;;;;;;14.30;10.23;;;0.80;99.90;;;;;;5025785;28;20492;-78
2021/01/08 02:14:05;;;;;;;13.57;9.80;;;0.80;99.90;;;;;;5026177;28;20445;-77
2021/01/08 02:16:33;;;;;;;14.57;10.33;;;0.80;99.90;;;;;;5028194;28;20425;-77
2021/01/08 02:18:59;;;;;;;16.20;10.07;;;0.90;99.90;;;;;;5014231;28;20469;-77
2021/01/08 02:21:46;;;;;;;13.43;9.77;;;0.90;99.90;;;;;;5014205;28;20457;-77
2021/01/08 02:24:22;;;;;;;15.97;10.70;;;0.80;99.90;;;;;;5026493;28;20866;-77
2021/01/08 02:26:49;;;;;;;15.70;9.70;;;0.90;99.90;;;;;;5008273;28;20587;-78
2021/01/08 02:29:14;;;;;;;18.20;11.43;;;0.90;99.90;;;;;;5026305;28;20476;-76
2021/01/08 02:31:40;;;;;;;13.87;10.80;;;0.80;99.90;;;;;;5026337;28;20442;-77
2021/01/08 02:34:06;;;;;;;15.07;10.60;;;0.80;99.90;;;;;;5026488;28;20529;-77
2021/01/08 02:36:39;;;;;;;17.67;12.00;;;0.80;99.90;;;;;;5026314;28;20179;-76
2021/01/08 02:39:06;;;;;;;15.60;12.30;;;0.80;99.90;;;;;;5026098;28;20688;-77
2021/01/08 02:41:35;;;;;;;17.93;11.70;;;0.80;99.90;;;;;;5025973;28;21005;-77
2021/01/08 02:44:03;;;;;;;16.20;11.27;;;0.80;99.90;;;;;;5025983;28;20449;-76
2021/01/08 02:46:28;;;;;;;18.43;11.20;;;0.80;99.90;;;;;;5007172;28;20419;-77
2021/01/08 02:48:54;;;;;;;19.00;12.70;;;0.80;99.90;;;;;;5026126;28;20499;-77
2021/01/08 02:51:20;;;;;;;23.07;13.90;;;0.70;99.90;;;;;;5026017;28;20183;-76
2021/01/08 02:53:46;;;;;;;21.17;15.30;;;0.70;99.90;;;;;;5025906;28;20187;-79
2021/01/08 02:56:19;;;;;;;20.00;13.33;;;0.70;99.90;;;;;;5008022;28;20659;-77
2021/01/08 02:58:46;;;;;;;22.20;14.67;;;0.70;99.90;;;;;;5025330;28;20481;-78
2021/01/08 03:01:12;;;;;;;24.03;14.63;;;0.70;99.90;;;;;;5026024;28;20464;-76
2021/01/08 03:03:38;;;;;;;22.37;14.60;;;0.70;99.90;;;;;;5025949;28;20467;-77
2021/01/08 03:06:05;;;;;;;18.83;15.50;;;0.70;99.90;;;;;;5025210;28;20457;-76
2021/01/08 03:08:31;;;;;;;25.87;16.20;;;0.70;99.90;;;;;;5025703;28;20202;-78
2021/01/08 03:10:58;;;;;;;22.40;13.90;;;0.70;99.90;;;;;;5007199;28;20437;-76
2021/01/08 03:13:25;;;;;;;22.63;15.10;;;0.70;99.90;;;;;;5025766;28;20426;-77
2021/01/08 03:15:51;;;;;;;21.53;15.10;;;0.70;99.90;;;;;;5025372;28;20434;-77
2021/01/08 03:18:16;;;;;;;21.17;15.43;;;0.70;99.90;;;;;;5007881;28;21005;-79
2021/01/08 03:20:42;;;;;;;21.23;14.87;;;0.70;99.90;;;;;;5027068;28;20191;-79
2021/01/08 03:23:08;;;;;;;23.87;16.40;;;0.70;99.90;;;;;;5026555;28;20183;-77
2021/01/08 03:25:34;;;;;;;25.67;15.93;;;0.70;99.90;;;;;;5025583;28;20273;-77
2021/01/08 03:27:59;;;;;;;24.03;15.03;;;0.60;99.90;;;;;;5025051;28;20454;-77
2021/01/08 03:30:25;;;;;;;27.10;15.37;;;0.60;99.90;;;;;;5025350;28;20432;-76
2021/01/08 03:32:51;;;;;;;27.73;15.03;;;0.60;99.90;;;;;;5007276;28;20198;-78
2021/01/08 03:35:17;;;;;;;22.57;15.37;;;0.60;99.90;;;;;;5025348;28;20191;-76
2021/01/08 03:37:43;;;;;;;21.93;14.47;;;0.60;99.90;;;;;;5024729;28;20213;-78
2021/01/08 03:40:09;;;;;;;26.10;16.83;;;0.60;99.90;;;;;;5024981;28;20195;-76
2021/01/08 03:42:35;;;;;;;25.20;15.83;;;0.60;99.90;;;;;;5025075;28;20476;-77
2021/01/08 03:45:00;;;;;;;23.17;15.90;;;0.60;99.90;;;;;;5026452;28;20245;-78
2021/01/08 03:47:26;;;;;;;24.10;16.47;;;0.60;99.90;;;;;;5028267;28;20440;-76
2021/01/08 03:49:52;;;;;;;22.10;15.17;;;0.60;99.90;;;;;;5028780;28;20194;-78
2021/01/08 03:52:17;;;;;;;20.67;14.03;;;0.60;99.90;;;;;;5010994;28;20539;-76
2021/01/08 03:54:43;;;;;;;25.27;15.83;;;0.60;99.90;;;;;;5029522;28;20194;-79
2021/01/08 03:57:08;;;;;;;28.60;15.33;;;0.60;99.90;;;;;;5028736;28;20694;-78
2021/01/08 03:59:34;;;;;;;24.63;15.03;;;0.60;99.90;;;;;;5012388;28;20301;-78
2021/01/08 04:02:00;;;;;;;23.00;17.57;;;0.60;99.90;;;;;;5010764;28;20195;-79
2021/01/08 04:04:25;;;;;;;23.23;14.33;;;0.60;99.90;;;;;;5029093;28;20592;-77
2021/01/08 04:06:51;;;;;;;20.47;14.13;;;0.60;99.90;;;;;;5011145;28;20182;-78
2021/01/08 04:09:18;;;;;;;24.93;14.33;;;0.70;99.90;;;;;;5010606;28;20191;-77
2021/01/08 04:11:44;;;;;;;24.70;15.00;;;0.60;99.90;;;;;;5011767;28;20404;-76
2021/01/08 04:14:09;;;;;;;23.37;15.00;;;0.60;99.90;;;;;;5027839;28;20430;-77
2021/01/08 04:16:36;;;;;;;26.27;16.33;;;0.70;99.90;;;;;;5009659;28;20191;-77
2021/01/08 04:19:02;;;;;;;21.80;15.20;;;0.70;99.90;;;;;;5025896;28;20241;-78
2021/01/08 04:21:28;;;;;;;22.80;13.90;;;0.60;99.90;;;;;;5028881;28;20470;-77
2021/01/08 04:23:54;;;;;;;25.23;16.27;;;0.70;99.90;;;;;;5027806;28;20438;-78
2021/01/08 04:26:20;;;;;;;21.33;14.83;;;0.70;99.90;;;;;;5027680;28;20432;-76
2021/01/08 04:28:45;;;;;;;22.17;15.37;;;0.70;99.90;;;;;;5028747;28;20206;-78
2021/01/08 04:31:11;;;;;;;26.40;15.17;;;0.70;99.90;;;;;;5010294;28;20822;-78
2021/01/08 04:33:37;;;;;;;21.93;16.10;;;0.70;99.90;;;;;;5027979;28;20179;-77
2021/01/08 04:36:04;;;;;;;20.33;15.40;;;0.70;99.90;;;;;;5010118;28;20183;-76
2021/01/08 04:38:29;;;;;;;24.13;14.30;;;0.70;99.90;;;;;;5028709;28;20207;-77
2021/01/08 04:40:55;;;;;;;20.93;15.60;;;0.70;99.90;;;;;;5011343;28;20422;-76
2021/01/08 04:43:21;;;;;;;19.80;14.20;;;0.70;99.90;;;;;;5032183;28;20234;-76
2021/01/08 04:45:47;;;;;;;27.97;15.27;;;0.70;99.90;;;;;;5032887;28;20509;-77
2021/01/08 04:48:14;;;;;;;22.07;14.30;;;0.80;99.90;;;;;;5030603;28;20528;-77
2021/01/08 04:50:42;;;;;;;19.37;13.13;;;0.70;99.90;;;;;;5033664;28;20245;-78
2021/01/08 04:53:09;;;;;;;20.10;12.77;;;0.70;99.90;;;;;;5032227;28;20432;-77
2021/01/08 04:55:36;;;;;;;21.47;14.83;;;0.70;99.90;;;;;;5031560;28;20496;-76
2021/01/08 04:58:04;;;;;;;20.47;13.33;;;0.70;99.90;;;;;;5029906;28;20503;-79
2021/01/08 05:00:30;;;;;;;20.33;13.73;;;0.70;99.90;;;;;;5032823;28;20421;-77
2021/01/08 05:02:56;;;;;;;19.23;14.37;;;0.70;99.90;;;;;;5031096;28;20466;-78
2021/01/08 05:05:22;;;;;;;18.57;12.80;;;0.80;99.90;;;;;;5030479;28;20534;-77
2021/01/08 05:07:48;;;;;;;20.93;13.53;;;0.70;99.90;;;;;;5030085;28;20553;-75
2021/01/08 05:10:14;;;;;;;18.93;13.43;;;0.80;99.90;;;;;;5013030;28;20184;-76
2021/01/08 05:12:44;;;;;;;19.80;14.93;;;0.70;99.90;;;;;;5027242;28;20719;-76
2021/01/08 05:15:13;;;;;;;22.63;14.60;;;0.70;99.90;;;;;;5027678;28;20197;-76
2021/01/08 05:17:43;;;;;;;22.43;15.37;;;0.80;99.90;;;;;;5028894;28;20540;-77
2021/01/08 05:20:10;;;;;;;20.03;13.60;;;0.70;99.90;;;;;;5028831;28;20419;-78
2021/01/08 05:22:38;;;;;;;19.77;13.73;;;0.70;99.90;;;;;;5027136;28;20465;-78
2021/01/08 05:25:09;;;;;;;22.17;13.83;;;0.70;99.90;;;;;;5028435;28;20935;-77
2021/01/08 05:27:35;;;;;;;20.70;15.27;;;0.70;99.90;;;;;;5025891;28;20450;-77
2021/01/08 05:30:17;;;;;;;23.10;15.20;;;0.70;99.90;;;;;;5026532;28;20968;-75
2021/01/08 05:32:43;;;;;;;22.67;15.33;;;0.70;99.90;;;;;;5007209;28;20440;-77
2021/01/08 05:35:13;;;;;;;22.57;15.33;;;0.70;99.90;;;;;;5026289;28;20422;-78
2021/01/08 05:37:44;;;;;;;21.80;15.80;;;0.70;99.90;;;;;;5023298;28;20460;-79
2021/01/08 05:40:11;;;;;;;35.77;16.47;;;0.70;99.90;;;;;;5025911;28;20433;-76
2021/01/08 05:43:01;;;;;;;24.90;16.53;;;0.60;99.90;;;;;;5025546;28;20560;-76
2021/01/08 05:45:28;;;;;;;22.20;14.60;;;0.60;99.90;;;;;;5006635;28;20473;-76
2021/01/08 05:47:56;;;;;;;26.23;15.13;;;0.60;99.90;;;;;;5025461;28;20793;-76
2021/01/08 05:50:23;;;;;;;28.17;16.87;;;0.60;99.90;;;;;;5025728;28;20433;-77
2021/01/08 05:53:05;;;;;;;26.70;17.50;;;0.60;99.90;;;;;;5008098;28;20469;-76
2021/01/08 05:55:35;;;;;;;26.43;15.43;;;0.50;99.90;;;;;;5002227;28;20430;-75
2021/01/08 05:58:25;;;;;;;23.93;15.27;;;0.50;99.90;;;;;;5026375;28;21042;-74
2021/01/08 06:01:00;;;;;;;29.60;17.47;;;0.60;99.90;;;;;;5024227;28;20440;-75
2021/01/08 06:03:26;;;;;;;25.13;16.83;;;0.60;99.90;;;;;;5025285;28;20425;-74
2021/01/08 06:05:54;;;;;;;25.37;16.40;;;0.50;99.90;;;;;;5026076;28;21040;-76
2021/01/08 06:08:44;;;;;;;24.70;16.53;;;0.60;99.90;;;;;;5023724;28;20583;-76
2021/01/08 06:11:29;;;;;;;26.70;16.67;;;0.50;99.90;;;;;;5018727;28;20437;-74
2021/01/08 06:13:58;;;;;;;25.60;15.57;;;0.50;99.90;;;;;;5005543;28;20437;-74
2021/01/08 06:16:23;;;;;;;26.87;17.10;;;0.50;99.90;;;;;;5026310;28;20893;-75
2021/01/08 06:18:55;;;;;;;26.90;16.80;;;0.50;99.90;;;;;;5029253;28;20471;-74
2021/01/08 06:21:34;;;;;;;29.47;18.60;;;0.50;99.90;;;;;;5020535;28;20242;-75
2021/01/08 06:24:00;;;;;;;31.83;18.07;;;0.50;99.90;;;;;;5023697;28;20416;-77
2021/01/08 06:26:29;;;;;;;30.73;15.90;;;0.50;99.90;;;;;;5007881;28;20418;-74
2021/01/08 06:28:59;;;;;;;31.37;17.60;;;0.50;99.90;;;;;;5008159;28;20333;-76
2021/01/08 06:31:44;;;;;;;28.33;16.87;;;0.50;99.90;;;;;;5009175;28;20434;-78
2021/01/08 06:34:10;;;;;;;21.50;15.80;;;0.50;99.90;;;;;;5026824;28;20499;-78
2021/01/08 06:36:45;;;;;;;22.57;15.33;;;0.60;99.90;;;;;;5025176;28;20498;-76
2021/01/08 06:39:20;;;;;;;23.53;15.30;;;0.50;99.90;;;;;;5025749;28;20690;-75
2021/01/08 06:41:52;;;;;;;24.60;16.03;;;0.50;99.90;;;;;;5025345;28;21014;-77
2021/01/08 06:44:24;;;;;;;22.90;16.13;;;0.50;99.90;;;;;;5026939;28;20437;-77
2021/01/08 06:46:52;;;;;;;28.97;16.67;;;0.50;99.90;;;;;;5008415;28;20868;-75
2021/01/08 06:49:19;;;;;;;29.50;17.20;;;0.50;99.90;;;;;;5008101;28;20471;-77
2021/01/08 06:51:44;;;;;;;24.70;14.93;;;0.50;99.90;;;;;;5025536;28;20442;-77
2021/01/08 06:54:12;;;;;;;26.03;16.17;;;0.50;99.90;;;;;;5007998;28;21038;-76
2021/01/08 06:56:45;;;;;;;30.63;18.37;;;0.50;99.90;;;;;;5024961;28;20175;-75
2021/01/08 06:59:17;;;;;;;26.70;16.53;;;0.50;99.90;;;;;;5006742;28;20449;-76
2021/01/08 07:02:14;;;;;;;27.70;17.20;;;0.50;99.90;;;;;;5006703;28;20470;-73
2021/01/08 07:04:40;;;;;;;25.43;16.10;;;0.50;99.90;;;;;;5006800;28;20517;-74
2021/01/08 07:07:20;;;;;;;29.60;16.70;;;0.50;99.90;;;;;;5007234;28;20589;-75
2021/01/08 07:09:47;;;;;;;29.40;18.90;;;0.50;99.90;;;;;;5025916;28;20187;-75
2021/01/08 07:12:13;;;;;;;25.47;17.60;;;0.40;99.90;;;;;;5025171;28;20812;-75
2021/01/08 07:14:39;;;;;;;27.83;17.53;;;0.50;99.90;;;;;;5025020;28;20433;-76
2021/01/08 07:17:09;;;;;;;25.90;16.80;;;0.50;99.90;;;;;;5007102;28;20237;-75
2021/01/08 07:19:39;;;;;;;29.70;17.40;;;0.50;99.90;;;;;;5009804;28;20461;-77
2021/01/08 07:22:05;;;;;;;23.93;14.70;;;0.50;99.90;;;;;;5029701;28;20994;-73
2021/01/08 07:24:33;;;;;;;26.77;17.60;;;0.50;99.90;;;;;;5030350;28;20430;-76
2021/01/08 07:27:18;;;;;;;28.70;17.83;;;0.50;99.90;;;;;;5011437;28;20187;-76
2021/01/08 07:29:58;;;;;;;23.70;16.07;;;0.50;99.90;;;;;;5011371;28;20443;-75
2021/01/08 07:32:39;;;;;;;41.13;18.27;;;0.50;99.90;;;;;;5029488;28;20452;-76
2021/01/08 07:35:18;;;;;;;27.93;17.17;;;0.50;99.90;;;;;;5029289;28;20429;-77
2021/01/08 07:38:08;;;;;;;28.30;17.30;;;0.50;99.90;;;;;;5030021;28;20441;-76
2021/01/08 07:40:36;;;;;;;28.30;16.50;;;0.50;99.90;;;;;;5025141;28;20435;-77
2021/01/08 07:43:11;;;;;;;28.47;17.03;;;0.50;99.90;;;;;;5030149;28;20457;-76
2021/01/08 07:45:54;;;;;;;31.17;18.40;;;0.50;99.90;;;;;;5030379;28;20429;-76
2021/01/08 07:48:21;;;;;;;26.20;17.13;;;0.50;99.90;;;;;;5029312;28;20460;-77
2021/01/08 07:50:50;;;;;;;30.67;17.83;;;0.60;99.90;;;;;;5031560;28;20432;-77
2021/01/08 07:53:42;;;;;;;29.47;16.83;;;0.50;99.90;;;;;;5011644;28;20505;-77
2021/01/08 07:56:12;;;;;;;26.47;16.80;;;0.60;99.90;;;;;;5026727;28;20461;-77
2021/01/08 07:58:38;;;;;;;30.43;18.00;;;0.50;99.90;;;;;;5013280;28;20472;-75
2021/01/08 08:01:05;;;;;;;30.10;17.83;;;0.50;99.90;;;;;;5029078;28;20433;-76
2021/01/08 08:03:31;;;;;;;25.80;16.37;;;0.60;99.90;;;;;;5027324;28;20179;-75
2021/01/08 08:05:59;;;;;;;27.47;16.70;;;0.60;99.90;;;;;;5027427;28;20484;-74
2021/01/08 08:08:26;;;;;;;25.50;15.97;;;0.60;99.90;;;;;;5009778;28;20510;-76
2021/01/08 08:10:51;;;;;;;22.23;14.87;;;0.60;99.90;;;;;;5028145;28;20497;-76
2021/01/08 08:13:26;;;;;;;23.40;15.07;;;0.60;99.90;;;;;;5010251;28;20474;-77
2021/01/08 08:15:52;;;;;;;22.50;14.27;;;0.60;99.90;;;;;;5027721;28;20250;-75
2021/01/08 08:18:17;;;;;;;24.27;15.13;;;0.60;99.90;;;;;;5008924;28;21033;-75
2021/01/08 08:20:43;;;;;;;24.13;14.53;;;0.60;99.90;;;;;;5027518;28;20183;-74
2021/01/08 08:23:16;;;;;;;25.40;14.80;;;0.60;99.90;;;;;;5010281;28;20218;-75
2021/01/08 08:25:42;;;;;;;20.53;13.80;;;0.70;99.90;;;;;;5024012;28;20183;-78
2021/01/08 08:28:08;;;;;;;18.90;13.07;;;0.60;99.90;;;;;;5027020;28;20446;-77
2021/01/08 08:30:34;;;;;;;20.60;15.10;;;0.60;99.90;;;;;;5009974;28;20452;-77
2021/01/08 08:33:00;;;;;;;23.47;13.43;;;0.70;99.90;;;;;;5032374;28;20436;-78
2021/01/08 08:35:26;;;;;;;19.80;13.37;;;0.70;99.90;;;;;;5036052;28;20436;-79
2021/01/08 08:37:53;;;;;;;21.53;13.90;;;0.70;99.90;;;;;;5036658;28;20456;-77
2021/01/08 08:40:24;;;;;;;19.83;13.57;;;0.60;99.90;;;;;;5033947;28;20651;-78
2021/01/08 08:42:51;;;;;;;18.80;11.80;;;0.60;99.90;;;;;;5016384;28;20457;-77
2021/01/08 08:45:18;;;;;;;17.80;13.00;;;0.60;99.90;;;;;;5015012;28;20792;-78
2021/01/08 08:47:47;;;;;;;17.77;11.83;;;0.60;99.90;;;;;;5014896;28;20464;-77
2021/01/08 08:50:14;;;;;;;14.80;11.17;;;0.70;99.90;;;;;;5013206;28;20422;-77
2021/01/08 08:52:39;;;;;;;17.80;10.60;;;0.60;99.90;;;;;;5017046;28;20434;-78
2021/01/08 08:55:06;;;;;;;18.90;12.37;;;0.60;99.90;;;;;;5032913;28;20817;-77
2021/01/08 08:57:32;;;;;;;21.73;12.57;;;0.60;99.90;;;;;;5014030;28;20187;-78
2021/01/08 08:59:57;;;;;;;21.80;11.07;;;0.70;99.90;;;;;;5034059;28;20522;-80
2021/01/08 09:02:28;;;;;;;16.50;11.27;;;0.70;99.90;;;;;;5032912;28;20466;-78
2021/01/08 09:04:58;;;;;;;16.53;12.60;;;0.70;99.90;;;;;;5030557;28;20194;-78
2021/01/08 09:07:37;;;;;;;17.47;11.40;;;0.70;99.90;;;;;;5034814;28;20501;-78
2021/01/08 09:10:28;;;;;;;20.70;12.53;;;0.70;99.90;;;;;;5031604;28;20445;-78
2021/01/08 09:13:03;;;;;;;20.63;14.03;;;0.80;99.90;;;;;;4939449;29;20443;-78
2021/01/08 09:15:33;;;;;;;17.70;11.93;;;0.70;99.90;;;;;;4950961;28;20441;-78
2021/01/08 09:18:07;;;;;;;21.17;14.60;;;0.70;99.90;;;;;;4959598;28;20479;-78
2021/01/08 09:20:36;;;;;;;19.57;12.77;;;0.80;99.90;;;;;;4952455;28;20528;-79
2021/01/08 09:23:01;;;;;;;22.27;12.83;;;0.70;99.90;;;;;;4953636;28;20597;-78
2021/01/08 09:25:27;;;;;;;18.40;12.00;;;0.70;99.90;;;;;;4953207;28;20548;-78
2021/01/08 09:27:53;;;;;;;18.50;12.13;;;0.80;99.90;;;;;;4933829;29;20229;-78
2021/01/08 09:30:19;;;;;;;22.83;14.30;;;0.80;99.90;;;;;;4949748;28;20463;-77
2021/01/08 09:32:44;;;;;;;20.70;13.37;;;0.80;99.90;;;;;;4936135;29;20206;-79
2021/01/08 09:35:10;;;;;;;23.00;12.97;;;0.80;99.90;;;;;;4949085;28;20556;-78
2021/01/08 09:37:42;;;;;;;16.33;12.03;;;0.80;99.90;;;;;;4950246;28;20212;-77
2021/01/08 09:40:13;;;;;;;15.77;12.40;;;0.80;99.90;;;;;;4940122;29;20484;-78
2021/01/08 09:42:39;;;;;;;18.50;12.07;;;0.80;99.90;;;;;;4958951;28;20997;-79
2021/01/08 09:45:21;;;;;;;15.53;10.57;;;0.80;99.90;;;;;;4941582;28;20432;-78
2021/01/08 09:47:46;;;;;;;16.20;11.90;;;0.80;99.90;;;;;;4954639;28;20452;-77
2021/01/08 09:50:22;;;;;;;14.33;11.87;;;0.80;99.90;;;;;;4983408;28;20437;-77
2021/01/08 09:52:49;;;;;;;14.97;11.43;;;0.80;99.90;;;;;;5032338;28;20602;-79
2021/01/08 09:55:31;;;;;;;15.27;10.90;;;0.90;99.90;;;;;;5034163;28;20519;-79
2021/01/08 09:58:01;;;;;;;16.77;11.60;;;0.80;99.90;;;;;;5014466;28;20952;-78
2021/01/08 10:00:36;;;;;;;15.90;11.17;;;0.90;99.90;;;;;;5012327;28;20429;-78
2021/01/08 10:03:16;;;;;;;18.53;12.07;;;0.90;99.90;;;;;;5013881;28;20473;-78
2021/01/08 10:05:41;;;;;;;17.87;12.43;;;0.90;99.90;;;;;;5013936;28;20525;-78
2021/01/08 10:08:18;;;;;;;15.97;11.40;;;0.90;99.90;;;;;;5028805;28;20527;-77
2021/01/08 10:10:43;;;;;;;17.87;11.30;;;0.90;99.90;;;;;;5010155;28;20190;-78
2021/01/08 10:13:21;;;;;;;11.90;10.03;;;0.90;99.90;;;;;;5027199;28;20823;-76
2021/01/08 10:15:49;;;;;;;19.30;11.00;;;0.90;99.90;;;;;;5011979;28;20221;-78
2021/01/08 10:18:37;;;;;;;14.70;11.30;;;1.00;99.90;;;;;;5028311;28;20887;-77
2021/01/08 10:21:07;;;;;;;16.27;12.30;;;1.00;99.90;;;;;;5029086;28;20437;-77
2021/01/08 10:23:41;;;;;;;20.60;12.20;;;1.00;99.90;;;;;;5028644;28;20917;-79
2021/01/08 10:26:18;;;;;;;16.30;10.90;;;1.00;99.90;;;;;;5029260;28;20453;-76
2021/01/08 10:28:54;;;;;;;14.53;10.53;;;1.00;99.90;;;;;;5032488;28;20453;-80
2021/01/08 10:31:21;;;;;;;15.57;10.47;;;1.10;99.90;;;;;;5035397;28;20445;-79
2021/01/08 10:33:47;;;;;;;12.80;10.13;;;1.10;99.90;;;;;;5025564;28;20930;-78
2021/01/08 10:36:14;;;;;;;13.03;11.20;;;1.00;99.90;;;;;;5025787;28;20453;-76
2021/01/08 10:38:41;;;;;;;16.80;12.10;;;1.00;99.90;;;;;;5017392;28;20466;-78
2021/01/08 10:41:07;;;;;;;16.23;10.93;;;1.00;99.90;;;;;;5021749;28;20511;-80
2021/01/08 10:43:35;;;;;;;15.80;11.27;;;0.90;99.90;;;;;;5021610;28;20475;-79
2021/01/08 10:46:04;;;;;;;19.73;10.53;;;0.90;99.90;;;;;;5041658;28;20278;-79
2021/01/08 10:48:31;;;;;;;18.10;11.60;;;0.90;99.90;;;;;;5040413;28;20529;-78
2021/01/08 10:50:57;;;;;;;17.20;12.00;;;0.90;99.90;;;;;;5021501;28;20440;-78
2021/01/08 10:53:23;;;;;;;15.97;11.43;;;0.90;99.90;;;;;;5018602;28;20445;-78
2021/01/08 10:55:48;;;;;;;20.10;11.63;;;0.90;99.90;;;;;;5020188;28;20864;-79
2021/01/08 10:58:16;;;;;;;18.20;13.07;;;0.90;99.90;;;;;;5040389;28;20203;-77
2021/01/08 11:00:45;;;;;;;14.40;10.33;;;0.90;99.90;;;;;;5038704;28;20246;-78
2021/01/08 11:03:11;;;;;;;17.40;12.23;;;1.00;99.90;;;;;;5038454;28;20996;-79
2021/01/08 11:05:43;;;;;;;21.43;11.70;;;1.00;99.90;;;;;;5021958;28;20433;-79
2021/01/08 11:08:10;;;;;;;16.17;11.60;;;1.00;99.90;;;;;;5019738;28;20207;-78
2021/01/08 11:10:36;;;;;;;17.63;11.83;;;1.10;99.90;;;;;;5035141;28;20486;-79
2021/01/08 11:13:02;;;;;;;18.20;11.80;;;1.00;99.90;;;;;;5035351;28;20957;-79
2021/01/08 11:15:28;;;;;;;19.73;13.00;;;1.10;99.90;;;;;;5018032;28;20834;-78
2021/01/08 11:17:54;;;;;;;17.10;12.20;;;1.10;99.90;;;;;;5034521;28;20461;-78
2021/01/08 11:20:19;;;;;;;17.63;11.97;;;1.10;99.90;;;;;;5036357;28;20190;-79
2021/01/08 11:22:45;;;;;;;20.50;11.57;;;1.00;99.90;;;;;;5040289;28;20214;-78
2021/01/08 11:25:13;;;;;;;16.30;12.13;;;1.00;99.90;;;;;;5037297;28;20278;-78
2021/01/08 11:27:39;;;;;;;15.40;12.23;;;1.10;99.90;;;;;;5036758;28;20214;-78
2021/01/08 11:30:06;;;;;;;13.63;11.03;;;1.10;99.90;;;;;;5031039;28;20791;-77
2021/01/08 11:32:32;;;;;;;16.17;11.70;;;1.10;99.90;;;;;;5030314;28;20969;-76
2021/01/08 11:34:57;;;;;;;14.10;10.97;;;1.10;99.90;;;;;;5030417;28;20517;-78
2021/01/08 11:37:23;;;;;;;17.73;11.80;;;1.10;99.90;;;;;;5030839;28;20202;-77
2021/01/08 11:39:48;;;;;;;18.20;12.43;;;1.10;99.90;;;;;;5031651;28;20260;-77
2021/01/08 11:42:15;;;;;;;17.00;11.93;;;1.10;99.90;;;;;;5030878;28;20341;-77
2021/01/08 11:44:41;;;;;;;18.30;14.03;;;1.20;99.90;;;;;;5030191;28;20266;-77
2021/01/08 11:47:07;;;;;;;15.20;12.00;;;1.10;99.90;;;;;;5030172;28;20498;-77
2021/01/08 11:49:32;;;;;;;14.87;12.63;;;1.20;99.90;;;;;;5033941;28;20457;-77
2021/01/08 11:51:58;;;;;;;15.83;11.63;;;1.20;99.90;;;;;;5035008;28;20191;-78
2021/01/08 11:54:25;;;;;;;18.70;12.40;;;1.20;99.90;;;;;;5020520;28;20186;-78
2021/01/08 11:56:51;;;;;;;16.67;11.97;;;1.20;99.90;;;;;;5038155;28;20183;-79
2021/01/08 11:59:16;;;;;;;19.13;15.53;;;1.30;99.90;;;;;;5035431;28;20522;-78
2021/01/08 12:01:42;;;;;;;16.30;13.40;;;1.40;99.90;;;;;;5034019;28;20469;-79
2021/01/08 12:04:07;;;;;;;15.33;12.40;;;1.60;99.90;;;;;;5036516;28;20183;-78
2021/01/08 12:06:33;;;;;;;16.53;12.50;;;1.60;99.90;;;;;;5013063;28;20186;-79
2021/01/08 12:09:01;;;;;;;15.97;11.50;;;1.60;99.90;;;;;;5032650;28;20220;-79
2021/01/08 12:11:28;;;;;;;16.00;12.43;;;1.50;99.90;;;;;;5032666;28;20433;-78
2021/01/08 12:13:54;;;;;;;15.97;12.63;;;1.60;99.90;;;;;;5031594;28;20475;-79
2021/01/08 12:16:33;;;;;;;17.70;12.50;;;1.60;99.90;;;;;;5031945;28;20568;-77
2021/01/08 12:19:00;;;;;;;14.13;10.83;;;1.60;99.90;;;;;;5016072;28;21011;-81
2021/01/08 12:21:28;;;;;;;16.00;11.40;;;1.70;99.90;;;;;;5031169;28;20836;-78
2021/01/08 12:23:54;;;;;;;16.40;12.57;;;1.70;99.90;;;;;;5030061;28;20456;-78
2021/01/08 12:26:20;;;;;;;17.70;13.17;;;1.70;99.90;;;;;;5004804;28;20944;-77
2021/01/08 12:28:48;;;;;;;19.50;14.00;;;1.70;99.90;;;;;;5030653;28;20458;-79
2021/01/08 12:31:14;;;;;;;16.90;12.47;;;1.80;99.90;;;;;;5030665;28;20516;-78
2021/01/08 12:33:41;;;;;;;17.00;12.57;;;1.70;99.90;;;;;;5030374;28;20429;-77
2021/01/08 12:36:09;;;;;;;13.60;11.63;;;1.80;99.90;;;;;;5029652;28;20448;-76
2021/01/08 12:38:35;;;;;;;16.17;13.40;;;1.80;99.90;;;;;;5029845;28;20442;-79
2021/01/08 12:41:00;;;;;;;14.73;12.40;;;1.70;99.90;;;;;;5029258;28;20483;-77
2021/01/08 12:43:26;;;;;;;18.53;12.80;;;1.80;99.90;;;;;;5020771;28;20186;-78
2021/01/08 12:45:52;;;;;;;17.10;12.20;;;1.70;99.90;;;;;;5026112;28;20251;-77